Time;durP1;ratioP1;P1;durP2;ratioP2;P2;SDS_P1;SDS_P2;PMS_P1;PMS_P2;Temp;Humidity;BMP_temperature;BMP_pressure;BME280_temperature;BME280_humidity;BME280_pressure;Samples;Min_cycle;Max_cycle;Signal;HPM_P1;HPM_P2
2023/06/12 00:02:13;;;;;;;3.80;2.17;;;18.60;1.00;;;;;;5094959;28;20398;-63
2023/06/12 00:04:39;;;;;;;2.90;1.60;;;18.80;1.00;;;;;;5113058;28;20097;-62
2023/06/12 00:07:06;;;;;;;2.42;1.55;;;18.90;1.00;;;;;;5113532;28;20204;-63
2023/06/12 00:09:33;;;;;;;2.50;1.42;;;;;;;;;;5113388;28;20448;-63
2023/06/12 00:11:58;;;;;;;3.40;1.48;;;18.70;1.00;;;;;;5113081;28;20040;-62
2023/06/12 00:14:24;;;;;;;4.28;1.45;;;18.60;1.00;;;;;;5113376;28;20038;-63
2023/06/12 00:16:50;;;;;;;3.60;1.67;;;18.60;1.00;;;;;;5113308;28;20091;-63
2023/06/12 00:19:15;;;;;;;2.00;1.45;;;18.70;1.00;;;;;;5113438;28;20510;-63
2023/06/12 00:21:41;;;;;;;3.13;1.40;;;18.50;1.00;;;;;;5113426;28;20035;-63
2023/06/12 00:24:08;;;;;;;2.72;1.80;;;18.50;1.00;;;;;;5113222;28;20514;-63
2023/06/12 00:26:38;;;;;;;2.45;1.65;;;18.50;1.00;;;;;;5112998;28;20047;-65
2023/06/12 00:29:04;;;;;;;4.20;1.92;;;18.30;1.00;;;;;;5128934;28;20034;-63
2023/06/12 00:31:30;;;;;;;3.45;1.80;;;18.30;1.00;;;;;;5113291;28;20027;-63
2023/06/12 00:33:55;;;;;;;3.42;1.88;;;18.30;1.00;;;;;;5113290;28;20040;-62
2023/06/12 00:36:22;;;;;;;2.72;1.52;;;18.30;1.00;;;;;;5113148;28;20460;-63
2023/06/12 00:38:48;;;;;;;4.28;2.10;;;18.20;1.00;;;;;;5112868;28;20051;-64
2023/06/12 00:41:14;;;;;;;3.22;1.60;;;18.20;1.00;;;;;;5113261;28;20067;-63
2023/06/12 00:43:40;;;;;;;2.97;1.60;;;18.00;1.00;;;;;;5113132;28;20375;-63
2023/06/12 00:46:06;;;;;;;3.50;1.48;;;18.20;1.00;;;;;;5113015;28;20058;-63
2023/06/12 00:48:32;;;;;;;3.10;1.90;;;18.10;1.00;;;;;;5112734;28;20098;-63
2023/06/12 00:50:58;;;;;;;3.72;1.50;;;18.10;1.00;;;;;;5111844;28;20035;-64
2023/06/12 00:53:24;;;;;;;2.13;1.30;;;18.20;1.00;;;;;;5112996;28;20036;-63
2023/06/12 00:55:50;;;;;;;5.65;1.70;;;18.00;1.00;;;;;;5112963;28;20063;-63
2023/06/12 00:58:16;;;;;;;2.60;1.58;;;18.00;1.00;;;;;;5112745;28;20487;-63
2023/06/12 01:00:43;;;;;;;3.55;1.58;;;18.90;30.80;;;;;;5112975;28;20502;-63
2023/06/12 01:03:12;;;;;;;2.15;1.30;;;18.00;1.00;;;;;;5112875;28;20076;-63
2023/06/12 01:05:42;;;;;;;2.60;1.65;;;18.00;1.00;;;;;;5112419;28;20048;-63
2023/06/12 01:08:29;;;;;;;2.88;2.10;;;17.90;1.00;;;;;;5112863;28;20075;-63
2023/06/12 01:11:04;;;;;;;3.47;1.58;;;17.70;1.00;;;;;;5111361;28;20062;-62
2023/06/12 01:13:30;;;;;;;7.47;1.65;;;17.60;1.00;;;;;;5114890;28;20039;-63
2023/06/12 01:15:56;;;;;;;2.65;1.65;;;18.40;1.00;;;;;;5116532;28;20059;-63
2023/06/12 01:18:22;;;;;;;1.55;1.17;;;17.60;1.00;;;;;;5116542;28;20039;-64
2023/06/12 01:20:53;;;;;;;4.28;1.55;;;17.70;1.00;;;;;;5116202;28;20483;-63
2023/06/12 01:23:44;;;;;;;2.63;1.40;;;17.60;1.00;;;;;;5116058;28;20101;-63
2023/06/12 01:26:33;;;;;;;1.85;1.48;;;;;;;;;;5112924;28;20059;-63
2023/06/12 01:29:17;;;;;;;2.22;1.30;;;17.50;1.00;;;;;;5116236;28;20111;-64
2023/06/12 01:31:56;;;;;;;3.15;1.45;;;17.50;1.00;;;;;;5116232;28;20114;-63
2023/06/12 01:34:28;;;;;;;2.85;1.50;;;18.30;1.00;;;;;;5116306;28;20043;-63
2023/06/12 01:37:05;;;;;;;2.50;1.27;;;17.40;1.00;;;;;;5116109;28;20133;-63
2023/06/12 01:39:38;;;;;;;5.72;1.63;;;17.40;1.00;;;;;;5114586;28;20043;-63
2023/06/12 01:42:07;;;;;;;1.15;0.90;;;17.20;1.00;;;;;;5116087;28;20438;-63
2023/06/12 01:44:33;;;;;;;2.72;1.38;;;17.20;1.00;;;;;;5115906;28;20048;-62
2023/06/12 01:46:59;;;;;;;2.22;1.17;;;17.20;1.00;;;;;;5115922;28;20089;-62
2023/06/12 01:49:25;;;;;;;3.58;1.52;;;17.20;1.00;;;;;;5115848;28;20036;-62
2023/06/12 01:51:50;;;;;;;5.75;1.83;;;17.10;1.00;;;;;;5115821;28;20035;-63
2023/06/12 01:54:18;;;;;;;5.00;1.92;;;17.10;1.00;;;;;;5115835;28;20079;-63
2023/06/12 01:56:44;;;;;;;2.47;1.05;;;17.10;1.00;;;;;;5115737;28;20040;-64
2023/06/12 01:59:11;;;;;;;2.05;1.17;;;17.10;1.00;;;;;;5115685;28;20036;-63
2023/06/12 02:01:37;;;;;;;2.22;1.60;;;17.10;1.00;;;;;;5116012;28;20047;-65
2023/06/12 02:04:03;;;;;;;3.60;1.73;;;17.00;1.00;;;;;;5064974;22;20080;-63
2023/06/12 02:06:28;;;;;;;2.70;1.52;;;17.00;1.00;;;;;;5054968;28;20044;-62
2023/06/12 02:08:54;;;;;;;2.60;1.70;;;17.10;1.00;;;;;;5054938;28;20585;-61
2023/06/12 02:11:19;;;;;;;3.90;1.48;;;17.40;1.00;;;;;;5053324;28;20094;-62
2023/06/12 02:13:45;;;;;;;2.30;1.55;;;17.20;1.00;;;;;;5054811;28;20037;-62
2023/06/12 02:16:11;;;;;;;3.28;1.58;;;16.90;1.00;;;;;;5053396;28;20105;-62
2023/06/12 02:18:36;;;;;;;3.50;1.52;;;16.90;1.00;;;;;;5054761;28;20033;-62
2023/06/12 02:21:02;;;;;;;2.20;1.23;;;16.80;1.00;;;;;;5054709;28;20392;-62
2023/06/12 02:23:27;;;;;;;3.50;1.63;;;16.80;1.00;;;;;;5053381;28;20055;-62
2023/06/12 02:25:53;;;;;;;2.88;1.60;;;16.70;1.00;;;;;;5053327;28;20040;-61
2023/06/12 02:28:18;;;;;;;2.35;1.30;;;16.70;1.00;;;;;;5054181;28;20499;-61
2023/06/12 02:30:44;;;;;;;6.10;1.80;;;17.10;1.00;;;;;;5054510;28;20037;-62
2023/06/12 02:33:12;;;;;;;5.80;1.90;;;16.70;1.00;;;;;;5052912;28;20048;-62
2023/06/12 02:35:39;;;;;;;3.22;1.70;;;16.70;1.00;;;;;;5054125;28;20048;-62
2023/06/12 02:38:04;;;;;;;1.83;1.35;;;16.60;1.00;;;;;;5054297;28;20487;-61
2023/06/12 02:40:30;;;;;;;3.35;1.48;;;16.60;1.00;;;;;;5054305;28;20198;-62
2023/06/12 02:42:56;;;;;;;3.42;1.80;;;17.30;1.00;;;;;;5054274;28;20052;-61
2023/06/12 02:45:23;;;;;;;3.03;1.88;;;16.50;1.00;;;;;;5052647;28;20505;-62
2023/06/12 02:47:49;;;;;;;4.60;1.80;;;16.50;1.00;;;;;;5052785;28;20110;-62
2023/06/12 02:50:16;;;;;;;3.97;1.75;;;16.50;1.00;;;;;;5054133;28;20040;-62
2023/06/12 02:52:42;;;;;;;3.50;1.50;;;16.50;1.00;;;;;;5054121;28;20124;-62
2023/06/12 02:55:08;;;;;;;2.10;1.10;;;16.30;1.00;;;;;;5054079;28;20068;-61
2023/06/12 02:57:34;;;;;;;3.42;1.60;;;16.20;1.00;;;;;;5052508;28;20041;-61
2023/06/12 03:00:00;;;;;;;2.95;1.55;;;16.20;1.00;;;;;;5053956;28;20120;-62
2023/06/12 03:02:26;;;;;;;5.25;1.80;;;16.20;1.00;;;;;;5053697;28;20095;-61
2023/06/12 03:04:52;;;;;;;3.25;1.85;;;16.10;1.00;;;;;;5053448;28;20045;-61
2023/06/12 03:07:18;;;;;;;2.63;1.60;;;16.00;1.00;;;;;;5053496;28;20041;-61
2023/06/12 03:09:45;;;;;;;3.92;1.52;;;16.00;1.00;;;;;;5053744;28;20029;-61
2023/06/12 03:12:11;;;;;;;2.13;1.45;;;16.00;1.00;;;;;;5053740;28;20111;-62
2023/06/12 03:14:38;;;;;;;1.77;1.30;;;16.00;1.00;;;;;;5053727;28;20098;-62
2023/06/12 03:17:05;;;;;;;2.65;1.90;;;15.90;1.00;;;;;;5052392;28;20053;-62
2023/06/12 03:19:31;;;;;;;3.70;1.70;;;15.90;1.00;;;;;;5053533;28;20532;-61
2023/06/12 03:21:56;;;;;;;3.90;1.80;;;15.80;1.00;;;;;;5053523;28;20119;-61
2023/06/12 03:24:24;;;;;;;2.20;1.25;;;15.70;1.00;;;;;;5051958;28;20053;-62
2023/06/12 03:26:49;;;;;;;5.53;1.70;;;15.70;1.00;;;;;;5053504;28;20053;-61
2023/06/12 03:29:15;;;;;;;2.60;1.73;;;15.70;1.00;;;;;;5053381;28;20588;-62
2023/06/12 03:31:41;;;;;;;4.47;1.98;;;15.70;1.00;;;;;;5053332;28;20036;-61
2023/06/12 03:34:07;;;;;;;2.70;1.50;;;15.70;1.00;;;;;;5052716;28;20120;-61
2023/06/12 03:36:37;;;;;;;2.35;1.30;;;15.90;1.00;;;;;;5051931;28;20492;-61
2023/06/12 03:39:03;;;;;;;2.13;1.43;;;15.70;1.00;;;;;;5053021;28;20040;-62
2023/06/12 03:41:30;;;;;;;2.05;1.25;;;15.60;1.00;;;;;;5051613;28;20041;-61
2023/06/12 03:43:56;;;;;;;2.28;1.40;;;15.60;1.00;;;;;;5053103;28;20449;-62
2023/06/12 03:46:22;;;;;;;4.18;1.42;;;15.60;1.00;;;;;;5035087;28;20076;-61
2023/06/12 03:48:47;;;;;;;2.97;1.25;;;15.60;1.00;;;;;;5052768;28;20115;-61
2023/06/12 03:51:13;;;;;;;1.95;1.38;;;15.60;1.00;;;;;;5068276;28;20106;-61
2023/06/12 03:53:39;;;;;;;3.92;1.60;;;15.50;1.00;;;;;;5068260;28;20044;-61
2023/06/12 03:56:05;;;;;;;5.22;1.52;;;15.60;1.00;;;;;;5052763;28;20045;-61
2023/06/12 03:58:31;;;;;;;1.95;1.35;;;15.60;1.00;;;;;;5051634;28;20041;-61
2023/06/12 04:00:57;;;;;;;2.70;1.27;;;15.90;1.00;;;;;;5051364;28;20045;-62
2023/06/12 04:03:24;;;;;;;1.70;1.40;;;16.10;1.00;;;;;;5051261;28;20056;-62
2023/06/12 04:05:53;;;;;;;4.65;1.40;;;16.20;1.00;;;;;;5052893;28;20056;-66
2023/06/12 04:08:19;;;;;;;4.72;1.83;;;15.60;1.00;;;;;;5051732;28;20041;-62
2023/06/12 04:10:45;;;;;;;2.60;1.40;;;15.60;1.00;;;;;;5052885;28;20450;-67
2023/06/12 04:13:11;;;;;;;2.45;1.60;;;15.60;1.00;;;;;;5034759;28;20119;-61
2023/06/12 04:15:38;;;;;;;2.67;1.35;;;15.60;1.00;;;;;;5052938;28;20414;-61
2023/06/12 04:18:05;;;;;;;5.57;1.40;;;15.60;1.00;;;;;;5052856;28;20496;-61
2023/06/12 04:20:32;;;;;;;2.45;1.58;;;15.60;1.00;;;;;;5052887;28;20130;-61
2023/06/12 04:22:58;;;;;;;4.38;1.80;;;15.60;1.00;;;;;;5051270;28;20049;-62
2023/06/12 04:25:26;;;;;;;7.55;2.75;;;16.00;1.00;;;;;;5052643;28;20045;-61
2023/06/12 04:27:52;;;;;;;2.08;1.58;;;15.60;1.00;;;;;;5052791;28;20120;-61
2023/06/12 04:30:21;;;;;;;1.92;1.45;;;16.30;1.00;;;;;;5052609;28;20084;-61
2023/06/12 04:32:47;;;;;;;3.60;1.50;;;15.90;1.00;;;;;;5052343;28;20053;-61
2023/06/12 04:35:16;;;;;;;3.40;1.75;;;15.70;1.00;;;;;;5052343;28;20127;-63
2023/06/12 04:37:42;;;;;;;8.55;1.90;;;15.70;1.00;;;;;;5051106;28;20082;-61
2023/06/12 04:40:11;;;;;;;2.90;1.70;;;15.70;1.00;;;;;;5051069;28;20152;-60
2023/06/12 04:42:37;;;;;;;3.22;2.03;;;15.80;1.00;;;;;;5051254;28;20476;-61
2023/06/12 04:45:04;;;;;;;3.53;1.92;;;15.80;1.00;;;;;;5034351;28;20057;-61
2023/06/12 04:47:30;;;;;;;4.03;2.00;;;15.80;1.00;;;;;;5054376;28;20061;-61
2023/06/12 04:49:57;;;;;;;3.08;1.73;;;15.80;1.00;;;;;;5055175;28;20048;-61
2023/06/12 04:52:24;;;;;;;3.17;1.70;;;15.90;1.00;;;;;;5054894;28;20053;-61
2023/06/12 04:54:52;;;;;;;1.75;1.30;;;15.90;1.00;;;;;;5056488;28;20068;-61
2023/06/12 04:57:18;;;;;;;3.30;1.73;;;16.00;1.00;;;;;;5056289;28;20079;-61
2023/06/12 04:59:44;;;;;;;2.85;1.42;;;16.00;1.00;;;;;;5056319;28;20041;-64
2023/06/12 05:02:11;;;;;;;4.53;2.35;;;16.10;1.00;;;;;;5038007;28;20076;-64
2023/06/12 05:04:38;;;;;;;6.53;2.42;;;16.10;1.00;;;;;;5055658;28;20053;-64
2023/06/12 05:07:19;;;;;;;4.97;1.80;;;16.40;1.00;;;;;;5056157;28;20519;-64
2023/06/12 05:09:45;;;;;;;3.28;2.10;;;16.20;1.00;;;;;;5056101;28;20456;-64
2023/06/12 05:12:11;;;;;;;4.78;2.30;;;16.30;1.00;;;;;;5056066;28;20060;-64
2023/06/12 05:14:40;;;;;;;2.47;1.77;;;16.40;1.00;;;;;;5056017;28;20094;-64
2023/06/12 05:17:06;;;;;;;3.70;1.70;;;16.40;1.00;;;;;;5054458;28;20049;-64
2023/06/12 05:19:32;;;;;;;3.10;2.20;;;16.40;1.00;;;;;;5055889;28;20128;-64
2023/06/12 05:21:57;;;;;;;3.83;2.08;;;16.50;1.00;;;;;;5055814;28;20037;-64
2023/06/12 05:24:23;;;;;;;3.72;1.95;;;16.60;1.00;;;;;;5055680;28;20476;-64
2023/06/12 05:26:50;;;;;;;2.67;1.85;;;16.60;1.00;;;;;;5055478;28;20037;-64
2023/06/12 05:29:16;;;;;;;3.72;2.17;;;16.80;1.00;;;;;;5055753;28;20536;-64
2023/06/12 05:31:42;;;;;;;2.80;1.98;;;16.90;1.00;;;;;;5054104;28;20045;-65
2023/06/12 05:34:07;;;;;;;3.35;1.77;;;17.00;1.00;;;;;;5055574;28;20029;-66
2023/06/12 05:36:33;;;;;;;2.63;1.80;;;17.10;1.00;;;;;;5055203;28;20051;-64
2023/06/12 05:38:58;;;;;;;6.38;2.20;;;17.20;1.00;;;;;;5054343;28;20040;-64
2023/06/12 05:41:25;;;;;;;5.50;2.10;;;17.30;1.00;;;;;;5055439;28;20040;-64
2023/06/12 05:43:51;;;;;;;3.63;2.00;;;17.30;1.00;;;;;;5055141;28;20041;-64
2023/06/12 05:46:16;;;;;;;3.72;1.98;;;17.40;1.00;;;;;;5055380;28;20128;-64
2023/06/12 05:48:42;;;;;;;5.15;2.05;;;17.50;1.00;;;;;;5055102;28;20124;-64
2023/06/12 05:51:08;;;;;;;4.55;1.92;;;17.50;1.00;;;;;;5055398;28;20033;-63
2023/06/12 05:53:34;;;;;;;4.07;2.20;;;17.60;1.00;;;;;;5053775;28;20045;-65
2023/06/12 05:56:00;;;;;;;4.10;1.98;;;17.80;1.00;;;;;;5055128;28;20387;-64
2023/06/12 05:58:26;;;;;;;4.82;2.35;;;17.80;1.00;;;;;;5054884;28;20045;-63
2023/06/12 06:00:53;;;;;;;3.15;2.10;;;17.90;1.00;;;;;;5055211;28;20048;-64
2023/06/12 06:03:19;;;;;;;5.13;2.22;;;17.90;1.00;;;;;;5054843;28;20523;-67
2023/06/12 06:05:48;;;;;;;3.30;2.10;;;18.00;1.00;;;;;;5055017;28;20051;-64
2023/06/12 06:08:14;;;;;;;3.25;2.17;;;18.10;1.00;;;;;;5053581;28;20033;-66
2023/06/12 06:10:40;;;;;;;4.35;2.42;;;18.30;1.00;;;;;;5054654;28;20044;-65
2023/06/12 06:13:06;;;;;;;3.40;2.30;;;18.30;1.00;;;;;;5054900;28;20040;-66
2023/06/12 06:15:32;;;;;;;3.78;2.45;;;18.40;1.00;;;;;;5053321;28;20036;-62
2023/06/12 06:17:58;;;;;;;5.03;2.25;;;18.60;1.00;;;;;;5054840;28;20037;-61
2023/06/12 06:20:23;;;;;;;4.38;2.17;;;19.10;1.00;;;;;;5053216;28;20450;-61
2023/06/12 06:22:50;;;;;;;6.93;1.98;;;18.80;1.00;;;;;;5054704;28;20067;-61
2023/06/12 06:25:17;;;;;;;5.18;2.50;;;18.90;1.00;;;;;;5054583;28;20528;-61
2023/06/12 06:27:42;;;;;;;2.40;1.90;;;19.00;1.00;;;;;;5053195;28;20123;-61
2023/06/12 06:30:08;;;;;;;4.30;2.05;;;19.10;1.00;;;;;;5053201;28;20455;-61
2023/06/12 06:32:34;;;;;;;4.63;2.28;;;19.20;1.00;;;;;;5052990;28;20040;-62
2023/06/12 06:34:59;;;;;;;3.65;2.22;;;19.30;1.00;;;;;;5054513;28;20089;-62
2023/06/12 06:37:25;;;;;;;5.15;2.28;;;19.40;1.00;;;;;;5054351;28;20096;-61
2023/06/12 06:39:51;;;;;;;3.17;2.08;;;19.40;1.00;;;;;;5036722;28;20037;-62
2023/06/12 06:42:16;;;;;;;3.58;2.28;;;19.50;1.00;;;;;;5054200;28;20174;-65
2023/06/12 06:44:42;;;;;;;3.70;2.80;;;19.60;1.00;;;;;;5054184;28;20472;-65
2023/06/12 06:47:10;;;;;;;3.75;2.00;;;19.70;1.00;;;;;;5054193;28;20028;-65
2023/06/12 06:49:37;;;;;;;3.65;2.70;;;19.80;1.00;;;;;;5054090;28;20040;-65
2023/06/12 06:52:04;;;;;;;3.67;2.20;;;19.80;1.00;;;;;;5053765;28;20116;-65
2023/06/12 06:54:29;;;;;;;3.90;2.42;;;19.80;1.00;;;;;;5054082;28;20045;-64
2023/06/12 06:56:56;;;;;;;7.13;2.10;;;20.00;1.00;;;;;;5054059;28;20450;-64
2023/06/12 06:59:22;;;;;;;3.72;2.42;;;20.20;1.00;;;;;;5053944;28;20135;-65
2023/06/12 07:01:48;;;;;;;3.75;2.97;;;20.30;1.00;;;;;;5053527;28;20120;-64
2023/06/12 07:04:14;;;;;;;3.97;2.35;;;20.40;1.00;;;;;;5053336;28;20053;-65
2023/06/12 07:06:39;;;;;;;4.60;3.15;;;20.70;1.00;;;;;;5053580;28;20110;-65
2023/06/12 07:09:05;;;;;;;5.22;3.50;;;20.60;1.00;;;;;;5035403;28;20045;-65
2023/06/12 07:11:31;;;;;;;8.55;2.70;;;20.80;1.00;;;;;;5053618;28;20043;-65
2023/06/12 07:13:57;;;;;;;8.90;2.30;;;20.80;1.00;;;;;;5035766;28;20496;-65
2023/06/12 07:16:23;;;;;;;4.35;2.58;;;20.80;1.00;;;;;;5052412;28;20056;-64
2023/06/12 07:18:48;;;;;;;4.50;2.53;;;21.30;1.00;;;;;;5052447;28;20048;-64
2023/06/12 07:21:14;;;;;;;7.75;2.70;;;21.60;1.00;;;;;;5053810;28;20051;-65
2023/06/12 07:23:40;;;;;;;7.78;2.85;;;21.10;1.00;;;;;;5053218;28;20524;-65
2023/06/12 07:26:05;;;;;;;4.00;2.45;;;21.30;1.00;;;;;;5053044;28;20037;-65
2023/06/12 07:28:31;;;;;;;3.55;2.35;;;21.60;1.00;;;;;;5053159;28;20052;-65
2023/06/12 07:30:57;;;;;;;5.43;2.30;;;21.50;1.00;;;;;;5053378;28;20442;-65
2023/06/12 07:33:22;;;;;;;4.38;2.75;;;21.70;1.00;;;;;;5052998;28;20036;-65
2023/06/12 07:35:48;;;;;;;7.65;2.65;;;21.90;1.00;;;;;;5053285;28;20044;-65
2023/06/12 07:38:14;;;;;;;7.22;2.78;;;22.00;1.00;;;;;;5053072;28;20147;-65
2023/06/12 07:40:40;;;;;;;5.85;2.60;;;22.00;1.00;;;;;;5051855;28;20047;-65
2023/06/12 07:43:06;;;;;;;3.50;2.60;;;22.40;1.00;;;;;;5053291;28;20396;-65
2023/06/12 07:45:31;;;;;;;5.20;2.88;;;22.20;1.00;;;;;;5053193;28;20041;-65
2023/06/12 07:48:00;;;;;;;4.40;2.40;;;22.10;1.00;;;;;;5051834;28;20052;-65
2023/06/12 07:50:25;;;;;;;6.90;2.45;;;22.20;1.00;;;;;;5068391;28;20123;-65
2023/06/12 07:52:51;;;;;;;9.05;2.92;;;22.20;1.00;;;;;;5053215;28;20142;-65
2023/06/12 07:55:18;;;;;;;5.53;2.45;;;22.90;1.00;;;;;;5053129;28;20472;-65
2023/06/12 07:57:43;;;;;;;3.65;1.95;;;22.50;1.00;;;;;;5052756;28;20044;-65
2023/06/12 08:00:10;;;;;;;4.32;2.83;;;22.50;1.00;;;;;;5051407;28;20045;-65
2023/06/12 08:02:35;;;;;;;6.65;3.13;;;22.60;1.00;;;;;;5052711;28;20099;-65
2023/06/12 08:05:03;;;;;;;5.63;2.65;;;22.70;1.00;;;;;;5051445;28;20037;-65
2023/06/12 08:07:30;;;;;;;4.07;2.47;;;22.80;1.00;;;;;;5052552;28;20045;-65
2023/06/12 08:09:56;;;;;;;3.20;2.13;;;22.80;1.00;;;;;;5052885;28;20047;-65
2023/06/12 08:12:22;;;;;;;5.35;2.58;;;23.00;1.00;;;;;;5051310;28;20048;-65
2023/06/12 08:14:48;;;;;;;6.65;2.58;;;23.00;1.00;;;;;;5051253;28;20045;-65
2023/06/12 08:17:15;;;;;;;4.45;2.70;;;23.30;1.00;;;;;;5052707;28;20076;-65
2023/06/12 08:19:41;;;;;;;3.55;2.17;;;23.20;1.00;;;;;;5052807;28;20448;-65
2023/06/12 08:22:08;;;;;;;3.58;2.35;;;23.80;1.00;;;;;;5056108;28;20040;-65
2023/06/12 08:24:38;;;;;;;4.70;2.45;;;23.50;1.00;;;;;;5056434;28;20052;-65
2023/06/12 08:27:04;;;;;;;6.40;2.78;;;23.50;1.00;;;;;;5056857;28;20047;-65
2023/06/12 08:29:30;;;;;;;3.78;2.63;;;23.60;1.00;;;;;;5055340;28;20476;-65
2023/06/12 08:31:55;;;;;;;5.32;2.58;;;23.80;1.00;;;;;;5056745;28;20082;-65
2023/06/12 08:34:25;;;;;;;6.95;2.45;;;23.90;1.00;;;;;;5055539;28;20365;-65
2023/06/12 08:36:53;;;;;;;4.95;2.22;;;23.90;1.00;;;;;;5056728;28;20369;-65
2023/06/12 08:39:18;;;;;;;5.28;2.22;;;24.00;1.00;;;;;;5056398;28;20045;-65
2023/06/12 08:42:10;;;;;;;3.97;2.60;;;24.10;1.00;;;;;;5056659;28;20047;-65
2023/06/12 08:44:39;;;;;;;5.28;2.17;;;24.20;1.00;;;;;;5056535;28;20116;-65
2023/06/12 08:47:07;;;;;;;4.35;2.35;;;24.20;1.00;;;;;;5055115;28;20048;-65
2023/06/12 08:49:33;;;;;;;6.03;2.60;;;24.40;1.00;;;;;;5056164;28;20080;-65
2023/06/12 08:52:00;;;;;;;13.25;2.50;;;24.30;1.00;;;;;;5055271;28;20075;-65
2023/06/12 08:54:26;;;;;;;2.55;1.95;;;24.40;1.00;;;;;;5056147;28;20049;-65
2023/06/12 08:56:55;;;;;;;3.90;2.30;;;24.40;1.00;;;;;;5056434;28;20064;-65
2023/06/12 08:59:21;;;;;;;3.70;2.67;;;24.40;1.00;;;;;;5056349;28;20080;-65
2023/06/12 09:01:53;;;;;;;3.35;2.50;;;24.70;1.00;;;;;;5056056;28;20483;-65
2023/06/12 09:04:41;;;;;;;3.40;2.08;;;24.80;1.00;;;;;;5055762;28;20550;-65
2023/06/12 09:07:07;;;;;;;4.15;2.55;;;24.80;1.00;;;;;;5054642;28;20052;-65
2023/06/12 09:09:37;;;;;;;4.97;2.75;;;24.80;1.00;;;;;;5055812;28;20051;-65
2023/06/12 09:12:03;;;;;;;4.65;2.67;;;24.90;1.00;;;;;;5054583;28;20063;-65
2023/06/12 09:14:34;;;;;;;4.85;2.97;;;25.00;1.00;;;;;;5056053;28;20045;-65
2023/06/12 09:17:00;;;;;;;;;;;25.00;1.00;;;;;;5056474;28;20037;-65
2023/06/12 09:19:27;;;;;;;4.45;2.50;;;25.70;1.00;;;;;;5055940;28;19978;-65
2023/06/12 09:21:53;;;;;;;3.00;2.17;;;25.20;1.00;;;;;;5054362;28;20049;-65
2023/06/12 09:24:20;;;;;;;3.50;2.40;;;25.10;1.00;;;;;;5055720;28;20041;-65
2023/06/12 09:26:47;;;;;;;4.05;2.50;;;25.30;1.00;;;;;;5054233;28;20055;-65
2023/06/12 09:29:12;;;;;;;3.33;2.13;;;25.40;1.00;;;;;;5055817;28;20083;-66
2023/06/12 09:31:41;;;;;;;6.00;2.28;;;;;;;;;;5055759;28;20041;-66
2023/06/12 09:34:07;;;;;;;4.55;2.50;;;25.60;1.00;;;;;;5054664;28;20041;-66
2023/06/12 09:36:34;;;;;;;5.05;2.17;;;25.70;1.00;;;;;;5055666;28;20090;-66
2023/06/12 09:39:00;;;;;;;4.65;2.45;;;25.70;1.00;;;;;;5055559;28;20041;-66
2023/06/12 09:41:25;;;;;;;4.55;2.30;;;25.80;1.00;;;;;;5055498;28;20037;-66
2023/06/12 09:44:03;;;;;;;3.65;2.40;;;25.80;1.00;;;;;;5055441;28;20033;-66
2023/06/12 09:46:30;;;;;;;3.95;2.50;;;26.00;1.00;;;;;;5053910;28;20049;-66
2023/06/12 09:48:59;;;;;;;5.68;2.88;;;26.00;1.00;;;;;;5053871;28;20404;-66
2023/06/12 09:51:26;;;;;;;5.75;2.90;;;26.10;1.00;;;;;;5055282;28;20037;-66
2023/06/12 09:53:55;;;;;;;3.17;2.05;;;26.10;1.00;;;;;;5054979;28;20040;-66
2023/06/12 09:56:23;;;;;;;3.30;2.40;;;26.20;1.00;;;;;;5053981;28;20059;-66
2023/06/12 09:58:50;;;;;;;4.88;2.33;;;26.20;1.00;;;;;;5054086;28;20048;-66
2023/06/12 10:01:19;;;;;;;3.50;2.40;;;26.50;1.00;;;;;;5036992;28;20045;-66
2023/06/12 10:03:47;;;;;;;3.08;2.33;;;26.40;1.00;;;;;;5036849;28;20099;-66
2023/06/12 10:06:14;;;;;;;4.15;2.58;;;26.50;1.00;;;;;;5053590;28;20131;-66
2023/06/12 10:08:40;;;;;;;4.13;2.33;;;26.50;1.00;;;;;;5053663;28;20388;-66
2023/06/12 10:11:11;;;;;;;4.50;2.20;;;26.50;1.00;;;;;;5053618;28;20121;-66
2023/06/12 10:13:38;;;;;;;3.55;2.45;;;26.60;1.00;;;;;;5054809;28;20033;-66
2023/06/12 10:16:05;;;;;;;6.95;2.10;;;26.60;1.00;;;;;;5053220;28;20048;-67
2023/06/12 10:18:31;;;;;;;5.38;2.47;;;26.50;1.00;;;;;;5054707;28;20115;-65
2023/06/12 10:20:58;;;;;;;4.18;2.33;;;26.40;1.00;;;;;;5053451;28;20670;-66
2023/06/12 10:23:24;;;;;;;3.63;2.78;;;26.40;1.00;;;;;;5054729;28;20507;-66
2023/06/12 10:25:51;;;;;;;3.55;2.28;;;26.40;1.00;;;;;;5053142;28;20041;-66
2023/06/12 10:28:17;;;;;;;3.55;2.47;;;26.40;1.00;;;;;;5054654;28;20112;-66
2023/06/12 10:31:12;;;;;;;3.90;2.72;;;26.50;1.00;;;;;;5053109;28;20049;-68
2023/06/12 10:33:54;;;;;;;3.42;2.70;;;26.50;1.00;;;;;;5053408;28;20076;-66
2023/06/12 10:36:21;;;;;;;5.63;2.85;;;26.60;1.00;;;;;;5053385;28;20084;-66
2023/06/12 10:38:56;;;;;;;3.13;2.42;;;26.50;1.00;;;;;;5052992;28;20041;-66
2023/06/12 10:41:32;;;;;;;4.50;3.03;;;26.60;1.00;;;;;;5052905;28;20099;-66
2023/06/12 10:43:58;;;;;;;6.13;3.00;;;26.70;1.00;;;;;;5053304;28;20036;-66
2023/06/12 10:46:23;;;;;;;6.00;2.90;;;26.70;1.00;;;;;;5053910;28;20048;-66
2023/06/12 10:48:49;;;;;;;8.63;2.70;;;26.80;1.00;;;;;;5054297;28;20029;-66
2023/06/12 10:51:15;;;;;;;4.53;2.70;;;26.80;1.00;;;;;;5054273;28;20041;-67
2023/06/12 10:53:46;;;;;;;3.85;2.70;;;26.80;1.00;;;;;;5036034;28;20048;-66
2023/06/12 10:56:12;;;;;;;4.32;2.70;;;26.80;1.00;;;;;;5052562;28;20048;-66
2023/06/12 10:58:42;;;;;;;5.57;2.70;;;26.90;1.00;;;;;;5053784;28;20484;-66
2023/06/12 11:01:09;;;;;;;3.00;2.15;;;27.00;1.00;;;;;;5054039;28;20167;-66
2023/06/12 11:03:38;;;;;;;5.13;3.13;;;27.00;1.00;;;;;;5053550;28;20063;-66
2023/06/12 11:06:13;;;;;;;4.18;2.80;;;27.00;1.00;;;;;;5053864;28;20051;-66
2023/06/12 11:08:41;;;;;;;6.32;2.90;;;27.00;1.00;;;;;;5053915;28;20041;-66
2023/06/12 11:11:11;;;;;;;3.85;2.45;;;27.00;1.00;;;;;;5053911;28;20040;-66
2023/06/12 11:13:45;;;;;;;3.50;2.70;;;27.10;1.00;;;;;;5035660;28;20083;-65
2023/06/12 11:16:15;;;;;;;3.78;2.70;;;27.10;1.00;;;;;;5053482;28;20045;-66
2023/06/12 11:18:41;;;;;;;3.80;2.60;;;27.20;1.00;;;;;;5053785;28;20106;-66
2023/06/12 11:21:09;;;;;;;4.65;2.75;;;27.30;1.00;;;;;;5053391;28;20037;-66
2023/06/12 11:23:40;;;;;;;3.63;2.60;;;27.50;1.00;;;;;;5053597;28;20033;-66
2023/06/12 11:26:07;;;;;;;3.58;2.95;;;27.50;1.00;;;;;;5035475;28;20495;-66
2023/06/12 11:28:33;;;;;;;6.30;2.70;;;27.60;1.00;;;;;;5053225;28;20049;-66
2023/06/12 11:31:01;;;;;;;3.65;2.92;;;27.50;1.00;;;;;;5053604;28;20443;-66
2023/06/12 11:33:27;;;;;;;3.63;2.88;;;27.50;1.00;;;;;;5051981;28;20049;-66
2023/06/12 11:35:58;;;;;;;5.40;3.30;;;27.60;1.00;;;;;;5053167;28;20048;-66
2023/06/12 11:38:24;;;;;;;3.78;2.63;;;27.70;1.00;;;;;;5051918;28;20450;-66
2023/06/12 11:40:51;;;;;;;3.45;2.67;;;27.80;1.00;;;;;;5051862;28;20134;-66
2023/06/12 11:43:18;;;;;;;4.65;3.15;;;27.90;1.00;;;;;;5053143;28;20037;-66
2023/06/12 11:45:44;;;;;;;4.72;3.10;;;27.90;1.00;;;;;;5053313;28;20045;-66
2023/06/12 11:48:16;;;;;;;5.18;3.20;;;28.00;1.00;;;;;;5053271;28;20122;-66
2023/06/12 11:50:48;;;;;;;7.15;2.90;;;28.20;1.00;;;;;;5052014;28;20077;-67
2023/06/12 11:53:14;;;;;;;6.22;3.30;;;28.30;1.00;;;;;;5053164;28;20430;-66
2023/06/12 11:55:41;;;;;;;4.40;3.03;;;28.50;1.00;;;;;;5051628;28;20043;-67
2023/06/12 11:58:07;;;;;;;4.70;2.92;;;28.60;1.00;;;;;;5051562;28;20403;-66
2023/06/12 12:00:34;;;;;;;5.15;3.40;;;28.70;1.00;;;;;;5053071;28;20318;-66
2023/06/12 12:03:04;;;;;;;5.72;3.47;;;28.70;1.00;;;;;;5052811;28;20064;-67
2023/06/12 12:05:35;;;;;;;4.10;2.97;;;28.70;1.00;;;;;;5052875;28;20052;-66
2023/06/12 12:08:04;;;;;;;6.80;3.08;;;28.70;1.00;;;;;;5051705;28;20464;-65
2023/06/12 12:10:33;;;;;;;3.97;3.20;;;28.70;1.00;;;;;;5052880;28;20052;-65
2023/06/12 12:13:03;;;;;;;4.07;3.28;;;28.80;1.00;;;;;;5052673;28;20037;-65
2023/06/12 12:15:31;;;;;;;4.25;3.38;;;28.80;1.00;;;;;;5052988;28;20040;-65
2023/06/12 12:17:57;;;;;;;5.10;3.50;;;28.60;1.00;;;;;;5051630;28;20045;-65
2023/06/12 12:20:27;;;;;;;5.18;3.45;;;28.60;1.00;;;;;;5051650;28;20153;-65
2023/06/12 12:22:58;;;;;;;3.63;2.80;;;28.60;1.00;;;;;;5052905;28;20037;-65
2023/06/12 12:25:30;;;;;;;4.55;3.25;;;28.50;1.00;;;;;;5051226;28;20051;-65
2023/06/12 12:27:59;;;;;;;4.18;2.90;;;28.60;1.00;;;;;;5052889;28;20045;-65
2023/06/12 12:30:26;;;;;;;4.45;2.60;;;28.70;1.00;;;;;;5051339;28;20041;-65
2023/06/12 12:32:54;;;;;;;4.97;3.10;;;28.80;1.00;;;;;;5052510;28;20034;-65
2023/06/12 12:35:21;;;;;;;5.05;2.83;;;28.90;1.00;;;;;;5034490;28;20051;-66
2023/06/12 12:37:49;;;;;;;5.60;3.20;;;29.00;1.00;;;;;;5052530;28;20063;-66
2023/06/12 12:40:15;;;;;;;5.05;2.95;;;29.10;1.00;;;;;;5052688;28;20072;-67
2023/06/12 12:42:46;;;;;;;4.80;3.05;;;29.20;1.00;;;;;;5052700;28;20029;-66
2023/06/12 12:45:13;;;;;;;4.15;2.88;;;29.20;1.00;;;;;;5034515;28;20055;-68
2023/06/12 12:47:40;;;;;;;5.05;3.47;;;29.30;1.00;;;;;;5051020;28;20331;-69
2023/06/12 12:50:07;;;;;;;4.70;3.03;;;29.40;1.00;;;;;;5051658;28;20384;-66
2023/06/12 12:52:33;;;;;;;6.90;3.22;;;29.60;1.00;;;;;;5051276;28;20134;-66
2023/06/12 12:54:59;;;;;;;4.68;3.17;;;29.60;1.00;;;;;;5052263;28;20037;-66
2023/06/12 12:57:31;;;;;;;6.55;3.10;;;29.60;1.00;;;;;;5052349;28;20041;-66
2023/06/12 12:59:59;;;;;;;4.55;3.38;;;29.60;1.00;;;;;;5052538;28;20041;-67